Time;durP1;ratioP1;P1;durP2;ratioP2;P2;SDS_P1;SDS_P2;PMS_P1;PMS_P2;Temp;Humidity;BMP_temperature;BMP_pressure;BME280_temperature;BME280_humidity;BME280_pressure;Samples;Min_cycle;Max_cycle;Signal;HPM_P1;HPM_P2
2021/05/04 00:02:07;;;;;;;94.32;78.43;;;15.80;99.90;;;;;;4989337;28;20022;-77
2021/05/04 00:04:35;;;;;;;86.93;77.40;;;15.90;99.90;;;;;;4992136;28;20062;-75
2021/05/04 00:07:02;;;;;;;85.00;74.03;;;16.00;99.90;;;;;;4991069;28;20037;-76
2021/05/04 00:09:30;;;;;;;78.43;70.13;;;16.10;99.90;;;;;;4984526;28;20412;-76
2021/05/04 00:11:57;;;;;;;79.40;70.70;;;16.10;99.90;;;;;;4996398;28;20155;-75
2021/05/04 00:14:25;;;;;;;79.15;70.57;;;16.20;99.90;;;;;;4992365;28;20034;-75
2021/05/04 00:16:52;;;;;;;78.13;69.57;;;16.30;99.90;;;;;;4989534;28;20034;-76
2021/05/04 00:19:20;;;;;;;79.93;71.28;;;16.20;99.90;;;;;;4987391;28;20034;-74
2021/05/04 00:21:47;;;;;;;80.18;71.68;;;16.20;99.60;;;;;;4987224;28;20046;-80
2021/05/04 00:24:15;;;;;;;82.10;72.82;;;16.20;99.70;;;;;;4989661;28;20543;-77
2021/05/04 00:26:42;;;;;;;82.35;73.38;;;16.10;99.70;;;;;;4989559;28;20037;-77
2021/05/04 00:29:10;;;;;;;80.53;71.80;;;16.00;99.90;;;;;;4996924;28;20481;-77
2021/05/04 00:31:38;;;;;;;83.55;73.38;;;16.00;99.90;;;;;;4992342;28;20037;-77
2021/05/04 00:34:05;;;;;;;81.07;71.05;;;16.00;99.90;;;;;;4988384;28;20031;-76
2021/05/04 00:36:33;;;;;;;83.30;73.28;;;16.20;99.90;;;;;;4990903;28;20038;-77
2021/05/04 00:39:01;;;;;;;82.40;74.03;;;16.20;99.90;;;;;;4990371;28;20033;-76
2021/05/04 00:41:29;;;;;;;82.75;72.55;;;16.30;99.90;;;;;;4990856;28;20429;-75
2021/05/04 00:43:56;;;;;;;87.40;76.32;;;16.40;99.90;;;;;;4995319;28;20041;-75
2021/05/04 00:46:24;;;;;;;85.10;76.00;;;16.40;99.90;;;;;;4987017;28;21316;-75
2021/05/04 00:48:51;;;;;;;82.55;73.43;;;16.40;99.90;;;;;;4990352;28;20092;-75
2021/05/04 00:51:21;;;;;;;85.88;76.53;;;16.50;99.90;;;;;;4991712;28;20113;-75
2021/05/04 00:53:49;;;;;;;84.85;75.55;;;16.50;99.80;;;;;;4991503;28;20065;-77
2021/05/04 00:56:19;;;;;;;84.78;76.10;;;16.50;99.90;;;;;;4988834;28;20053;-77
2021/05/04 00:58:51;;;;;;;85.38;76.32;;;16.50;99.90;;;;;;4989482;28;20038;-77
2021/05/04 01:01:19;;;;;;;85.35;76.28;;;16.40;99.90;;;;;;4990684;28;20022;-74
2021/05/04 01:03:46;;;;;;;88.82;79.45;;;16.40;99.90;;;;;;4993811;28;20029;-80
2021/05/04 01:06:14;;;;;;;98.55;81.72;;;16.50;99.90;;;;;;4990458;28;20023;-81
2021/05/04 01:08:41;;;;;;;92.32;81.38;;;16.60;99.90;;;;;;4993265;28;20022;-78
2021/05/04 01:11:09;;;;;;;92.75;79.82;;;16.50;99.90;;;;;;4993689;28;20026;-79
2021/05/04 01:13:36;;;;;;;85.32;75.50;;;16.60;99.90;;;;;;5000300;28;20034;-78
2021/05/04 01:16:04;;;;;;;87.30;75.13;;;16.60;99.90;;;;;;4993822;28;20358;-78
2021/05/04 01:18:31;;;;;;;84.65;75.63;;;16.50;99.70;;;;;;4993253;28;20089;-77
2021/05/04 01:20:59;;;;;;;88.78;76.13;;;16.40;99.90;;;;;;4996130;28;20064;-78
2021/05/04 01:23:26;;;;;;;84.72;75.60;;;16.40;99.90;;;;;;4995175;28;20037;-78
2021/05/04 01:25:53;;;;;;;95.60;82.03;;;16.50;99.90;;;;;;4995436;28;20176;-78
2021/05/04 01:28:21;;;;;;;88.35;78.93;;;16.40;99.90;;;;;;4994834;28;20022;-79
2021/05/04 01:30:48;;;;;;;86.57;76.13;;;16.40;99.90;;;;;;4991760;28;20030;-78
2021/05/04 01:33:16;;;;;;;92.15;77.90;;;16.30;99.90;;;;;;4992260;28;20373;-80
2021/05/04 01:35:43;;;;;;;92.20;77.30;;;16.30;99.90;;;;;;4992393;28;20033;-78
2021/05/04 01:38:11;;;;;;;84.93;76.03;;;16.10;99.90;;;;;;4997786;28;20388;-77
2021/05/04 01:40:38;;;;;;;83.43;71.40;;;16.10;99.90;;;;;;4995485;28;20489;-77
2021/05/04 01:43:06;;;;;;;84.30;74.63;;;16.20;99.90;;;;;;5003695;28;20022;-78
2021/05/04 01:45:34;;;;;;;83.63;73.57;;;16.30;99.90;;;;;;5001975;28;20076;-77
2021/05/04 01:48:02;;;;;;;81.05;71.07;;;16.30;99.90;;;;;;4989595;28;20534;-75
2021/05/04 01:50:30;;;;;;;79.07;70.63;;;16.30;99.90;;;;;;4992453;28;20456;-75
2021/05/04 01:52:57;;;;;;;78.97;69.82;;;16.40;99.90;;;;;;4988144;28;20474;-77
2021/05/04 01:55:24;;;;;;;72.07;64.47;;;16.40;99.90;;;;;;4993241;28;20133;-75
2021/05/04 01:57:52;;;;;;;77.07;65.53;;;16.40;99.90;;;;;;4990133;28;20041;-74
2021/05/04 02:00:20;;;;;;;78.05;65.72;;;16.30;99.90;;;;;;4991013;28;20026;-75
2021/05/04 02:02:47;;;;;;;69.90;60.17;;;16.30;99.90;;;;;;4991555;28;20061;-76
2021/05/04 02:05:15;;;;;;;71.25;63.38;;;16.20;99.90;;;;;;4994671;28;20041;-77
2021/05/04 02:07:42;;;;;;;70.13;62.40;;;16.20;99.90;;;;;;4993715;28;20030;-75
2021/05/04 02:10:11;;;;;;;65.03;57.92;;;16.20;99.90;;;;;;4992854;28;20031;-77
2021/05/04 02:12:43;;;;;;;69.72;61.35;;;16.20;99.90;;;;;;4989903;28;20105;-76
2021/05/04 02:15:11;;;;;;;68.72;59.78;;;16.20;99.90;;;;;;4994606;28;20038;-76
2021/05/04 02:17:39;;;;;;;70.35;62.28;;;16.30;99.90;;;;;;4991139;28;20030;-80
2021/05/04 02:20:07;;;;;;;69.95;62.35;;;16.20;99.90;;;;;;4994219;28;20503;-77
2021/05/04 02:22:34;;;;;;;69.80;62.33;;;16.30;99.90;;;;;;4990263;28;21047;-76
2021/05/04 02:25:03;;;;;;;68.72;61.20;;;16.40;99.90;;;;;;4992801;28;20052;-75
2021/05/04 02:27:30;;;;;;;74.95;61.03;;;16.50;99.90;;;;;;4989909;28;20094;-79
2021/05/04 02:29:58;;;;;;;73.32;61.72;;;16.50;99.90;;;;;;4990908;28;20037;-77
2021/05/04 02:32:26;;;;;;;72.70;63.15;;;16.60;99.90;;;;;;4994443;28;20978;-76
2021/05/04 02:34:54;;;;;;;68.68;60.53;;;16.30;99.90;;;;;;4988925;28;20076;-77
2021/05/04 02:37:22;;;;;;;71.47;62.15;;;16.30;99.90;;;;;;4991659;28;20048;-78
2021/05/04 02:39:49;;;;;;;71.90;59.65;;;16.40;99.90;;;;;;4992698;28;20657;-74
2021/05/04 02:42:17;;;;;;;67.85;59.70;;;16.40;99.90;;;;;;4998555;28;20030;-79
2021/05/04 02:44:44;;;;;;;66.47;55.92;;;16.50;99.90;;;;;;4998162;28;20034;-76
2021/05/04 02:47:11;;;;;;;65.75;58.53;;;16.60;99.90;;;;;;4994133;28;20030;-76
2021/05/04 02:49:40;;;;;;;67.00;59.78;;;16.60;99.90;;;;;;4995197;28;20070;-76
2021/05/04 02:52:07;;;;;;;70.22;57.70;;;16.60;99.90;;;;;;4993487;28;20113;-75
2021/05/04 02:54:35;;;;;;;64.32;56.47;;;16.60;99.90;;;;;;4991198;28;20030;-75
2021/05/04 02:57:02;;;;;;;60.58;54.08;;;16.60;99.90;;;;;;4992978;28;20022;-75
2021/05/04 02:59:29;;;;;;;61.40;52.80;;;16.60;99.90;;;;;;4990828;28;20046;-75
2021/05/04 03:01:57;;;;;;;58.67;49.33;;;16.70;99.90;;;;;;4991380;28;20021;-73
2021/05/04 03:04:24;;;;;;;53.63;46.25;;;16.80;99.90;;;;;;4994441;28;20022;-77
2021/05/04 03:06:52;;;;;;;53.28;46.28;;;16.90;99.90;;;;;;4994240;28;20137;-75
2021/05/04 03:09:19;;;;;;;56.92;48.88;;;17.00;99.90;;;;;;4987524;28;20038;-75
2021/05/04 03:11:47;;;;;;;55.65;49.60;;;17.00;99.70;;;;;;4996328;28;20037;-77
2021/05/04 03:14:14;;;;;;;61.08;51.78;;;17.10;99.60;;;;;;4990031;28;20408;-76
2021/05/04 03:16:42;;;;;;;57.72;51.45;;;17.00;99.80;;;;;;4990423;28;20113;-75
2021/05/04 03:19:09;;;;;;;59.50;53.13;;;17.00;99.90;;;;;;4991594;28;20048;-74
2021/05/04 03:21:36;;;;;;;60.13;51.95;;;17.00;99.90;;;;;;4991865;28;20121;-74
2021/05/04 03:24:05;;;;;;;57.75;51.47;;;17.00;99.90;;;;;;4992190;28;20053;-76
2021/05/04 03:26:32;;;;;;;60.63;54.05;;;17.00;99.90;;;;;;4989585;28;20042;-74
2021/05/04 03:28:59;;;;;;;57.22;51.38;;;16.90;99.90;;;;;;4987411;28;20496;-75
2021/05/04 03:31:27;;;;;;;62.15;52.38;;;16.80;99.90;;;;;;4990712;28;20041;-76
2021/05/04 03:33:55;;;;;;;59.33;52.25;;;16.80;99.90;;;;;;4991248;28;20392;-78
2021/05/04 03:36:22;;;;;;;62.45;50.50;;;16.80;99.90;;;;;;4994952;28;20045;-77
2021/05/04 03:38:50;;;;;;;59.83;49.58;;;16.80;99.90;;;;;;4999073;28;20046;-79
2021/05/04 03:41:17;;;;;;;54.35;47.58;;;16.80;99.90;;;;;;4994114;28;20034;-79
2021/05/04 03:43:44;;;;;;;55.88;49.80;;;16.70;99.90;;;;;;4994026;28;20030;-79
2021/05/04 03:46:32;;;;;;;54.47;48.53;;;16.70;99.90;;;;;;4991718;28;20026;-78
2021/05/04 03:49:00;;;;;;;57.47;51.28;;;16.70;99.90;;;;;;4991541;28;20053;-79
2021/05/04 03:51:28;;;;;;;60.55;51.13;;;16.70;99.90;;;;;;4991331;28;20054;-78
2021/05/04 03:53:55;;;;;;;52.65;44.97;;;16.70;99.90;;;;;;4988502;28;20065;-79
2021/05/04 03:56:23;;;;;;;46.60;41.58;;;16.50;99.90;;;;;;4985938;28;20089;-78
2021/05/04 03:58:50;;;;;;;45.83;36.10;;;16.40;99.90;;;;;;4989837;28;20068;-78
2021/05/04 04:01:18;;;;;;;41.85;34.88;;;16.20;99.90;;;;;;4990566;28;20109;-74
2021/05/04 04:03:47;;;;;;;39.78;34.45;;;16.10;99.90;;;;;;4987237;28;20022;-78
2021/05/04 04:06:15;;;;;;;41.78;35.40;;;16.10;99.90;;;;;;4990992;28;20036;-75
2021/05/04 04:08:45;;;;;;;43.33;37.58;;;16.00;99.90;;;;;;4994072;28;20416;-77
2021/05/04 04:11:13;;;;;;;37.88;33.22;;;16.00;99.90;;;;;;4994283;28;20412;-76
2021/05/04 04:13:40;;;;;;;37.90;33.88;;;16.00;99.90;;;;;;4993545;28;20038;-78
2021/05/04 04:16:08;;;;;;;39.08;32.50;;;15.90;99.90;;;;;;4993704;28;20031;-74
2021/05/04 04:18:35;;;;;;;35.53;31.75;;;15.90;99.90;;;;;;4993118;28;20223;-75
2021/05/04 04:21:03;;;;;;;36.92;32.70;;;16.00;99.90;;;;;;4995284;28;20030;-78
2021/05/04 04:23:30;;;;;;;35.28;31.67;;;16.00;99.90;;;;;;4993954;28;20118;-79
2021/05/04 04:25:58;;;;;;;36.38;32.42;;;16.10;99.90;;;;;;4992635;28;20022;-82
2021/05/04 04:28:25;;;;;;;37.15;33.15;;;16.10;99.90;;;;;;4992477;28;20026;-79
2021/05/04 04:30:52;;;;;;;34.08;30.63;;;16.20;99.90;;;;;;4992174;28;20026;-80
2021/05/04 04:33:27;;;;;;;34.85;31.15;;;16.20;99.90;;;;;;4989621;28;20501;-78
2021/05/04 04:35:55;;;;;;;33.07;28.57;;;16.20;99.90;;;;;;4995150;28;20032;-78
2021/05/04 04:38:24;;;;;;;35.97;30.33;;;16.30;99.90;;;;;;4990904;28;20041;-77
2021/05/04 04:40:52;;;;;;;35.72;28.88;;;16.30;99.90;;;;;;4994461;28;20081;-80
2021/05/04 04:43:19;;;;;;;37.63;30.70;;;16.40;99.90;;;;;;4990514;28;20030;-80
2021/05/04 04:45:47;;;;;;;32.53;28.92;;;16.30;99.90;;;;;;4995256;28;22240;-79
2021/05/04 04:48:14;;;;;;;30.85;27.55;;;16.30;99.90;;;;;;4995906;28;20030;-79
2021/05/04 04:50:42;;;;;;;31.48;28.20;;;16.30;99.90;;;;;;4997653;28;20103;-78
2021/05/04 04:53:09;;;;;;;32.33;27.58;;;16.30;99.90;;;;;;4993327;28;20484;-77
2021/05/04 04:55:40;;;;;;;36.33;28.48;;;16.30;99.90;;;;;;4990942;28;20041;-76
2021/05/04 04:58:08;;;;;;;31.80;28.10;;;16.30;99.90;;;;;;4994122;28;20109;-76
2021/05/04 05:00:35;;;;;;;29.90;25.38;;;16.40;99.90;;;;;;4993077;28;20029;-77
2021/05/04 05:03:02;;;;;;;29.25;25.77;;;16.40;99.90;;;;;;4995092;28;20030;-77
2021/05/04 05:05:30;;;;;;;27.50;24.52;;;16.40;99.90;;;;;;4993909;28;20026;-78
2021/05/04 05:07:57;;;;;;;30.52;24.05;;;16.30;99.90;;;;;;4994382;28;20030;-77
2021/05/04 05:10:25;;;;;;;28.70;24.63;;;16.30;99.90;;;;;;4991617;28;20084;-80
2021/05/04 05:12:52;;;;;;;27.50;23.63;;;16.40;99.90;;;;;;4998948;28;20101;-77
2021/05/04 05:15:20;;;;;;;29.48;25.50;;;16.40;99.90;;;;;;4997736;28;20030;-76
2021/05/04 05:17:47;;;;;;;28.15;25.13;;;16.40;99.90;;;;;;5000154;28;20120;-78
2021/05/04 05:20:15;;;;;;;31.17;26.17;;;16.40;99.90;;;;;;5002341;28;20041;-79
2021/05/04 05:22:45;;;;;;;30.02;26.77;;;16.40;99.90;;;;;;5004827;28;20381;-76
2021/05/04 05:25:14;;;;;;;31.00;26.92;;;16.40;99.90;;;;;;4996545;28;20046;-79
2021/05/04 05:27:41;;;;;;;32.15;26.75;;;16.30;99.90;;;;;;4996862;28;20042;-79
2021/05/04 05:30:09;;;;;;;25.88;23.10;;;16.30;99.90;;;;;;4996027;28;20034;-80
2021/05/04 05:32:40;;;;;;;27.73;23.88;;;16.20;99.90;;;;;;4995687;28;20037;-79
2021/05/04 05:35:08;;;;;;;26.13;22.42;;;16.20;99.90;;;;;;4994639;28;20444;-80
2021/05/04 05:37:36;;;;;;;27.75;24.13;;;16.20;99.90;;;;;;4996908;28;20034;-80
2021/05/04 05:40:04;;;;;;;27.20;24.33;;;16.20;99.90;;;;;;4991794;28;20108;-78
2021/05/04 05:42:32;;;;;;;29.77;26.48;;;16.20;99.90;;;;;;4994747;28;20037;-77
2021/05/04 05:44:59;;;;;;;33.42;27.48;;;16.20;99.90;;;;;;4994978;28;20030;-78
2021/05/04 05:47:26;;;;;;;31.45;26.00;;;16.20;99.90;;;;;;4993114;28;20030;-78
2021/05/04 05:49:54;;;;;;;30.92;27.58;;;16.20;99.90;;;;;;4991815;28;20048;-80
2021/05/04 05:52:21;;;;;;;30.05;26.77;;;16.20;99.90;;;;;;4998084;28;20034;-79
2021/05/04 05:54:49;;;;;;;30.15;26.95;;;16.20;99.90;;;;;;4994382;28;20400;-76
2021/05/04 05:57:16;;;;;;;31.42;27.60;;;16.20;99.90;;;;;;4991555;28;20026;-78
2021/05/04 05:59:44;;;;;;;31.02;26.33;;;16.20;99.90;;;;;;4991216;28;20018;-82
2021/05/04 06:02:11;;;;;;;29.90;25.50;;;16.20;99.90;;;;;;4991732;28;20018;-78
2021/05/04 06:04:38;;;;;;;27.83;24.33;;;16.10;99.90;;;;;;4998953;28;20034;-83
2021/05/04 06:07:06;;;;;;;26.02;23.30;;;16.10;99.90;;;;;;5000108;28;20026;-83
2021/05/04 06:09:33;;;;;;;26.23;23.35;;;16.10;99.90;;;;;;4995919;28;20069;-84
2021/05/04 06:12:01;;;;;;;27.35;21.38;;;16.10;99.90;;;;;;4997925;28;20028;-81
2021/05/04 06:14:29;;;;;;;24.30;20.83;;;16.10;99.90;;;;;;4994162;28;20122;-83
2021/05/04 06:16:57;;;;;;;25.15;20.45;;;16.00;99.90;;;;;;4999818;28;20045;-83
2021/05/04 06:19:25;;;;;;;22.95;20.25;;;16.00;99.90;;;;;;4994404;28;20038;-80
2021/05/04 06:21:56;;;;;;;21.13;18.92;;;16.00;99.90;;;;;;4992761;28;20034;-81
2021/05/04 06:24:23;;;;;;;23.50;21.05;;;16.00;99.90;;;;;;4999625;28;20042;-77
2021/05/04 06:26:52;;;;;;;24.33;21.80;;;16.00;99.90;;;;;;4993775;28;20046;-80
2021/05/04 06:29:19;;;;;;;23.08;20.27;;;16.00;99.90;;;;;;4995311;28;20029;-77
2021/05/04 06:31:51;;;;;;;23.30;20.52;;;16.00;99.90;;;;;;4998538;28;20468;-80
2021/05/04 06:34:19;;;;;;;26.38;20.38;;;16.00;99.90;;;;;;4990929;28;20034;-82
2021/05/04 06:36:46;;;;;;;18.38;16.45;;;16.10;99.90;;;;;;4992419;28;20146;-79
2021/05/04 06:39:15;;;;;;;22.35;19.05;;;16.10;99.90;;;;;;4987995;28;20034;-80
2021/05/04 06:41:43;;;;;;;20.13;17.48;;;16.00;99.90;;;;;;4990654;28;20030;-79
2021/05/04 06:44:12;;;;;;;18.45;16.65;;;16.00;99.90;;;;;;4988004;28;20105;-78
2021/05/04 06:46:40;;;;;;;18.63;16.92;;;15.90;99.90;;;;;;4984968;28;20042;-79
2021/05/04 06:49:07;;;;;;;20.55;16.75;;;15.90;99.90;;;;;;4992148;28;20092;-77
2021/05/04 06:51:35;;;;;;;19.33;17.00;;;15.90;99.90;;;;;;4986890;28;20026;-77
2021/05/04 06:54:04;;;;;;;20.90;17.23;;;15.80;99.90;;;;;;4991281;28;20334;-77
2021/05/04 06:56:33;;;;;;;20.35;18.05;;;15.80;99.90;;;;;;4991139;28;20022;-76
2021/05/04 06:59:01;;;;;;;18.98;16.95;;;15.90;99.90;;;;;;4990407;28;20029;-77
2021/05/04 07:01:28;;;;;;;21.63;17.88;;;15.80;99.90;;;;;;4984375;28;20125;-76
2021/05/04 07:03:55;;;;;;;21.45;17.85;;;15.80;99.90;;;;;;4985935;28;20445;-76
2021/05/04 07:06:26;;;;;;;21.00;18.58;;;15.80;99.90;;;;;;4992409;28;20035;-78
2021/05/04 07:08:53;;;;;;;19.45;16.27;;;15.80;99.90;;;;;;4990706;28;20030;-76
2021/05/04 07:11:20;;;;;;;19.38;17.25;;;15.90;99.90;;;;;;4991467;28;20121;-75
2021/05/04 07:13:48;;;;;;;20.08;17.67;;;15.80;99.90;;;;;;4995017;28;20047;-75
2021/05/04 07:16:15;;;;;;;20.23;16.73;;;15.80;99.90;;;;;;4990123;28;20030;-75
2021/05/04 07:18:45;;;;;;;19.42;16.45;;;15.80;99.90;;;;;;4990994;28;20030;-75
2021/05/04 07:21:13;;;;;;;21.63;16.98;;;15.80;99.90;;;;;;4992886;28;20481;-75
2021/05/04 07:23:41;;;;;;;18.38;16.50;;;15.80;99.90;;;;;;4991697;28;20040;-74
2021/05/04 07:26:10;;;;;;;22.83;15.55;;;15.70;99.90;;;;;;4988310;28;20031;-76
2021/05/04 07:28:37;;;;;;;20.05;15.95;;;15.70;99.90;;;;;;4995978;28;20026;-75
2021/05/04 07:31:05;;;;;;;19.65;16.90;;;15.70;99.90;;;;;;4993136;28;20433;-78
2021/05/04 07:33:32;;;;;;;19.38;17.30;;;15.70;99.90;;;;;;4992022;28;20093;-76
2021/05/04 07:36:00;;;;;;;20.83;16.95;;;15.70;99.90;;;;;;4988804;28;20370;-76
2021/05/04 07:38:28;;;;;;;21.95;18.17;;;15.60;99.90;;;;;;4991960;28;20567;-75
2021/05/04 07:40:57;;;;;;;23.17;18.27;;;15.60;99.90;;;;;;4989582;28;20033;-74
2021/05/04 07:43:24;;;;;;;23.23;17.65;;;15.60;99.90;;;;;;4989553;28;20046;-76
2021/05/04 07:45:52;;;;;;;20.08;17.92;;;15.60;99.90;;;;;;4994504;28;20547;-79
2021/05/04 07:48:22;;;;;;;21.70;18.15;;;15.60;99.90;;;;;;4990247;28;20030;-76
2021/05/04 07:50:50;;;;;;;27.73;20.10;;;15.60;99.90;;;;;;4987794;28;20444;-74
2021/05/04 07:53:18;;;;;;;28.25;18.77;;;15.60;99.90;;;;;;4993423;28;20053;-75
2021/05/04 07:55:45;;;;;;;20.00;17.83;;;15.60;99.90;;;;;;4974041;28;20362;-77
2021/05/04 07:58:15;;;;;;;22.85;18.48;;;15.60;99.90;;;;;;4995968;28;20046;-76
2021/05/04 08:00:42;;;;;;;21.15;18.55;;;15.60;99.90;;;;;;4992025;28;20106;-77
2021/05/04 08:03:12;;;;;;;22.45;18.48;;;15.60;99.90;;;;;;4993037;28;20018;-78
2021/05/04 08:05:39;;;;;;;22.95;19.58;;;15.50;99.90;;;;;;4995433;28;20105;-76
2021/05/04 08:08:07;;;;;;;27.60;21.48;;;15.50;99.90;;;;;;4995781;28;20026;-76
2021/05/04 08:10:34;;;;;;;22.02;18.98;;;15.50;99.90;;;;;;4992503;28;20030;-75
2021/05/04 08:13:04;;;;;;;20.73;17.40;;;15.50;99.90;;;;;;4990449;28;20472;-76
2021/05/04 08:15:33;;;;;;;20.42;18.33;;;15.40;99.90;;;;;;4991934;28;20080;-77
2021/05/04 08:18:04;;;;;;;22.95;18.80;;;15.40;99.90;;;;;;4994323;28;20026;-75
2021/05/04 08:20:34;;;;;;;23.63;20.13;;;15.40;99.90;;;;;;4986378;28;20121;-75
2021/05/04 08:23:03;;;;;;;23.40;19.25;;;15.50;99.90;;;;;;4991550;28;20140;-76
2021/05/04 08:25:30;;;;;;;23.50;20.73;;;15.40;99.90;;;;;;4995813;28;20036;-78
2021/05/04 08:27:58;;;;;;;23.17;20.42;;;15.40;99.90;;;;;;4994501;28;20035;-76
2021/05/04 08:30:25;;;;;;;22.40;19.65;;;15.50;99.90;;;;;;4986883;28;20092;-77
2021/05/04 08:32:54;;;;;;;25.50;20.15;;;15.50;99.90;;;;;;4992907;28;20089;-76
2021/05/04 08:35:22;;;;;;;27.73;21.27;;;15.50;99.90;;;;;;4993114;28;20033;-77
2021/05/04 08:37:50;;;;;;;24.13;20.52;;;15.50;99.90;;;;;;4992350;28;20029;-75
2021/05/04 08:40:17;;;;;;;25.50;21.80;;;15.50;99.90;;;;;;4988586;28;20033;-78
2021/05/04 08:42:45;;;;;;;24.63;20.67;;;15.50;99.90;;;;;;4987543;28;20062;-77
2021/05/04 08:45:14;;;;;;;25.60;22.38;;;15.50;99.90;;;;;;4990438;28;20043;-78
2021/05/04 08:47:47;;;;;;;27.73;23.40;;;15.50;99.90;;;;;;4991738;28;20527;-82
2021/05/04 08:50:17;;;;;;;28.08;24.40;;;15.50;99.90;;;;;;4992008;28;20057;-81
2021/05/04 08:52:44;;;;;;;29.02;23.42;;;15.50;99.90;;;;;;4992470;28;20097;-82
2021/05/04 08:55:16;;;;;;;29.85;24.95;;;15.50;99.90;;;;;;4993174;28;20029;-82
2021/05/04 08:57:47;;;;;;;28.52;25.50;;;15.50;99.90;;;;;;4996211;28;20022;-81
2021/05/04 09:00:16;;;;;;;28.38;25.33;;;15.60;99.90;;;;;;4990021;28;20477;-81
2021/05/04 09:03:09;;;;;;;31.95;25.65;;;15.50;99.90;;;;;;4989970;28;20034;-77
2021/05/04 09:06:08;;;;;;;28.60;25.48;;;15.50;99.90;;;;;;4986735;28;20022;-78
2021/05/04 09:22:38;;;;;;;38.85;34.63;;;15.60;99.90;;;;;;4996099;28;20172;-78
2021/05/04 09:25:07;;;;;;;43.55;35.03;;;15.60;99.90;;;;;;4989216;28;20133;-77
2021/05/04 09:27:35;;;;;;;35.88;32.03;;;15.60;99.90;;;;;;4986439;28;20074;-76
2021/05/04 09:30:03;;;;;;;38.20;34.25;;;15.50;99.90;;;;;;4989892;28;20033;-78
2021/05/04 09:32:32;;;;;;;39.00;34.22;;;15.50;99.90;;;;;;4992053;28;20030;-79
2021/05/04 09:35:05;;;;;;;39.92;34.03;;;15.50;99.90;;;;;;4992685;28;20034;-80
2021/05/04 09:37:43;;;;;;;40.80;35.38;;;15.50;99.90;;;;;;4987914;28;20512;-80
2021/05/04 09:40:28;;;;;;;38.83;34.47;;;15.50;99.90;;;;;;4989760;28;20034;-80
2021/05/04 09:43:16;;;;;;;42.95;38.10;;;15.40;99.90;;;;;;4988079;28;20027;-80
2021/05/04 09:45:45;;;;;;;45.22;36.88;;;15.40;99.90;;;;;;4992967;28;20034;-80
2021/05/04 09:48:17;;;;;;;45.22;37.60;;;15.40;99.90;;;;;;4992433;28;20109;-81
2021/05/04 09:50:47;;;;;;;43.85;37.15;;;15.40;99.90;;;;;;4994514;28;20084;-78
2021/05/04 09:53:16;;;;;;;43.75;39.00;;;15.40;99.90;;;;;;4998347;28;20516;-82
2021/05/04 09:55:55;;;;;;;41.90;37.50;;;15.40;99.90;;;;;;4996393;28;20042;-79
2021/05/04 09:58:42;;;;;;;40.95;36.35;;;15.40;99.90;;;;;;4995477;28;20049;-78
2021/05/04 10:01:15;;;;;;;40.08;35.53;;;15.40;99.90;;;;;;4996291;28;20030;-82
2021/05/04 10:03:44;;;;;;;39.63;33.05;;;15.30;99.90;;;;;;4991258;28;20037;-80
2021/05/04 10:06:14;;;;;;;44.03;35.70;;;15.30;99.90;;;;;;4988635;28;20496;-79
2021/05/04 10:08:42;;;;;;;38.33;33.97;;;15.30;99.90;;;;;;4993483;28;20030;-80
2021/05/04 10:11:20;;;;;;;40.65;34.10;;;15.30;99.90;;;;;;4992029;28;20078;-80
2021/05/04 10:13:52;;;;;;;39.92;35.60;;;15.30;99.90;;;;;;4991041;28;20050;-79
2021/05/04 10:16:31;;;;;;;41.17;34.28;;;15.30;99.90;;;;;;4992531;28;20014;-77
2021/05/04 10:19:04;;;;;;;36.30;31.60;;;15.20;99.90;;;;;;4988581;28;20057;-79
2021/05/04 10:21:34;;;;;;;37.25;33.33;;;15.20;99.90;;;;;;4990927;28;20038;-80
2021/05/04 10:24:01;;;;;;;38.78;32.45;;;15.20;99.90;;;;;;4992537;28;20058;-80
2021/05/04 10:26:32;;;;;;;37.00;33.08;;;15.20;99.90;;;;;;4995058;28;20026;-77
2021/05/04 10:29:05;;;;;;;37.85;32.85;;;15.20;99.90;;;;;;4994277;28;20037;-77
2021/05/04 10:31:44;;;;;;;36.17;32.25;;;15.20;99.90;;;;;;4990161;28;20033;-80
2021/05/04 10:34:36;;;;;;;38.38;32.25;;;15.20;99.90;;;;;;4994562;28;20033;-78
2021/05/04 10:37:23;;;;;;;34.42;30.83;;;15.20;99.90;;;;;;4994697;28;20034;-82
2021/05/04 10:39:51;;;;;;;36.85;32.00;;;15.20;99.90;;;;;;4992139;28;20552;-80
2021/05/04 10:42:40;;;;;;;37.10;32.95;;;15.20;99.90;;;;;;4991987;28;20081;-79
2021/05/04 10:45:12;;;;;;;34.88;31.35;;;15.20;99.90;;;;;;4986284;28;20033;-79
2021/05/04 10:47:42;;;;;;;36.65;32.75;;;15.20;99.90;;;;;;4995454;28;20084;-78
2021/05/04 10:50:12;;;;;;;35.20;31.45;;;15.20;99.90;;;;;;4993730;28;20261;-78
2021/05/04 10:52:58;;;;;;;36.92;31.70;;;15.20;99.90;;;;;;4992991;28;20069;-78
2021/05/04 10:55:44;;;;;;;36.53;32.72;;;15.20;99.90;;;;;;4991500;28;20146;-80
2021/05/04 10:58:15;;;;;;;36.40;32.55;;;15.20;99.90;;;;;;4995603;28;20030;-78
2021/05/04 11:00:56;;;;;;;37.85;33.97;;;15.30;99.90;;;;;;4988824;28;20104;-78
2021/05/04 11:03:33;;;;;;;40.75;36.65;;;15.30;99.90;;;;;;4989788;28;20018;-78
2021/05/04 11:06:35;;;;;;;41.38;36.95;;;15.20;99.90;;;;;;4985962;28;20030;-77
2021/05/04 11:09:14;;;;;;;42.38;37.88;;;15.20;99.90;;;;;;4994172;28;20585;-77
2021/05/04 11:11:45;;;;;;;42.95;38.50;;;15.10;99.90;;;;;;4993316;28;20098;-78
2021/05/04 11:14:27;;;;;;;44.55;39.80;;;15.10;99.90;;;;;;4993896;28;20034;-78
2021/05/04 11:16:56;;;;;;;45.67;40.80;;;15.10;99.90;;;;;;4992000;28;20036;-77
2021/05/04 11:19:32;;;;;;;43.33;38.47;;;15.20;99.90;;;;;;4995071;28;20041;-78
2021/05/04 11:22:00;;;;;;;45.85;41.08;;;15.10;99.90;;;;;;4994895;28;20030;-78
2021/05/04 11:24:34;;;;;;;46.40;41.40;;;15.20;99.90;;;;;;4999848;28;20030;-78
2021/05/04 11:27:06;;;;;;;45.13;40.33;;;15.10;99.90;;;;;;5005900;28;20026;-79
2021/05/04 11:29:34;;;;;;;46.53;41.58;;;15.20;99.90;;;;;;5000771;28;20034;-78
2021/05/04 11:32:10;;;;;;;45.17;40.05;;;15.10;99.90;;;;;;4994868;28;20428;-79
2021/05/04 11:34:38;;;;;;;43.08;38.50;;;15.10;99.90;;;;;;4996179;28;20041;-81
2021/05/04 11:37:32;;;;;;;45.45;39.33;;;15.10;99.90;;;;;;4992893;28;20022;-80
2021/05/04 11:40:06;;;;;;;44.67;38.40;;;15.10;99.90;;;;;;4990854;28;20413;-78
2021/05/04 11:42:54;;;;;;;42.72;36.50;;;15.10;99.90;;;;;;4992561;28;20034;-78
2021/05/04 11:45:30;;;;;;;38.38;34.00;;;15.10;99.90;;;;;;4995368;28;20072;-78
2021/05/04 11:48:01;;;;;;;38.63;33.22;;;15.10;99.90;;;;;;4991497;28;20034;-78
2021/05/04 11:50:32;;;;;;;36.90;31.45;;;15.20;99.90;;;;;;4995863;28;20061;-80
2021/05/04 11:53:06;;;;;;;34.22;30.60;;;15.10;99.90;;;;;;4994764;28;20417;-83
2021/05/04 11:55:37;;;;;;;35.22;30.92;;;15.10;99.90;;;;;;4994485;28;20032;-81
2021/05/04 11:58:09;;;;;;;36.45;31.88;;;15.10;99.90;;;;;;4991954;28;20034;-81
2021/05/04 12:00:38;;;;;;;39.13;31.73;;;15.20;99.90;;;;;;4991279;28;20492;-83
2021/05/04 12:03:08;;;;;;;34.33;30.70;;;15.20;99.90;;;;;;4993000;28;20396;-83
2021/05/04 12:05:38;;;;;;;34.47;28.85;;;15.20;99.90;;;;;;4991546;28;20034;-80
2021/05/04 12:08:06;;;;;;;32.65;29.15;;;15.10;99.90;;;;;;4991322;28;20034;-83
2021/05/04 12:10:39;;;;;;;33.95;28.20;;;15.20;99.90;;;;;;4992239;28;20026;-82
2021/05/04 12:13:09;;;;;;;32.17;26.70;;;15.20;99.90;;;;;;4992455;28;20042;-80
2021/05/04 12:15:38;;;;;;;31.85;25.25;;;15.20;99.90;;;;;;4992206;28;20034;-80
2021/05/04 12:18:17;;;;;;;28.67;25.58;;;15.20;99.90;;;;;;4991806;28;20388;-84
2021/05/04 12:20:50;;;;;;;31.10;25.98;;;15.20;99.90;;;;;;4991687;28;20023;-84
2021/05/04 12:23:36;;;;;;;29.98;25.83;;;15.20;99.90;;;;;;4993256;28;20458;-82
2021/05/04 12:26:08;;;;;;;27.20;23.85;;;15.20;99.90;;;;;;4999119;28;20505;-81
2021/05/04 12:28:57;;;;;;;29.75;25.30;;;15.20;99.90;;;;;;4988445;28;20034;-82
2021/05/04 12:31:33;;;;;;;31.48;24.25;;;15.20;99.90;;;;;;4993290;28;20026;-82
2021/05/04 12:34:04;;;;;;;30.00;24.67;;;15.20;99.90;;;;;;4990719;28;20038;-81
2021/05/04 12:36:51;;;;;;;28.60;23.35;;;15.20;99.90;;;;;;4990890;28;20101;-79
2021/05/04 12:39:30;;;;;;;26.20;23.10;;;15.20;99.90;;;;;;4989554;28;20027;-78
2021/05/04 12:42:02;;;;;;;25.70;21.45;;;15.20;99.90;;;;;;4989620;28;20022;-79
2021/05/04 12:44:31;;;;;;;24.40;20.67;;;15.20;99.90;;;;;;4990819;28;20050;-78
2021/05/04 12:47:06;;;;;;;27.02;21.33;;;15.20;99.90;;;;;;4990393;28;20098;-79
2021/05/04 12:49:38;;;;;;;21.10;18.88;;;15.20;99.90;;;;;;4991162;28;20126;-80
2021/05/04 12:52:20;;;;;;;21.52;19.38;;;15.20;99.90;;;;;;4989911;28;20036;-79
2021/05/04 12:54:49;;;;;;;22.38;19.98;;;15.20;99.90;;;;;;4990433;28;20046;-79
2021/05/04 12:57:20;;;;;;;20.88;18.58;;;15.20;99.90;;;;;;4990618;28;20109;-79